sensor_id;sensor_type;location;lat;lon;timestamp;P1;durP1;ratioP1;P2;durP2;ratioP2
12623;SDS011;6377;42.836;23.998;2023-06-01T00:00:17;9.73;;;5.17;;
12623;SDS011;6377;42.836;23.998;2023-06-01T00:02:45;8.43;;;4.87;;
12623;SDS011;6377;42.836;23.998;2023-06-01T00:05:12;8.77;;;5.60;;
12623;SDS011;6377;42.836;23.998;2023-06-01T00:07:40;15.63;;;6.00;;
12623;SDS011;6377;42.836;23.998;2023-06-01T00:10:08;13.87;;;6.90;;
12623;SDS011;6377;42.836;23.998;2023-06-01T00:12:35;9.20;;;5.73;;
12623;SDS011;6377;42.836;23.998;2023-06-01T00:15:03;7.77;;;6.30;;
12623;SDS011;6377;42.836;23.998;2023-06-01T00:17:30;7.50;;;6.13;;
12623;SDS011;6377;42.836;23.998;2023-06-01T00:19:57;8.13;;;5.80;;
12623;SDS011;6377;42.836;23.998;2023-06-01T00:22:26;7.87;;;6.03;;
12623;SDS011;6377;42.836;23.998;2023-06-01T00:25:00;9.27;;;5.47;;
12623;SDS011;6377;42.836;23.998;2023-06-01T00:27:28;6.00;;;4.97;;
12623;SDS011;6377;42.836;23.998;2023-06-01T00:29:55;6.53;;;4.70;;
12623;SDS011;6377;42.836;23.998;2023-06-01T00:32:22;6.43;;;5.00;;
12623;SDS011;6377;42.836;23.998;2023-06-01T00:34:49;8.30;;;4.97;;
12623;SDS011;6377;42.836;23.998;2023-06-01T00:37:16;8.87;;;4.97;;
12623;SDS011;6377;42.836;23.998;2023-06-01T00:39:43;10.13;;;5.33;;
12623;SDS011;6377;42.836;23.998;2023-06-01T00:42:12;6.60;;;5.07;;
12623;SDS011;6377;42.836;23.998;2023-06-01T00:44:39;8.37;;;5.57;;
12623;SDS011;6377;42.836;23.998;2023-06-01T00:47:06;5.90;;;5.07;;
12623;SDS011;6377;42.836;23.998;2023-06-01T00:49:34;9.80;;;5.73;;
12623;SDS011;6377;42.836;23.998;2023-06-01T00:52:01;7.77;;;5.70;;
12623;SDS011;6377;42.836;23.998;2023-06-01T00:54:28;7.33;;;5.70;;
12623;SDS011;6377;42.836;23.998;2023-06-01T00:56:55;8.83;;;5.70;;
12623;SDS011;6377;42.836;23.998;2023-06-01T00:59:24;7.43;;;5.57;;
12623;SDS011;6377;42.836;23.998;2023-06-01T01:01:52;6.10;;;5.33;;
12623;SDS011;6377;42.836;23.998;2023-06-01T01:04:19;6.93;;;5.40;;
12623;SDS011;6377;42.836;23.998;2023-06-01T01:06:53;6.63;;;5.33;;
12623;SDS011;6377;42.836;23.998;2023-06-01T01:09:31;6.87;;;5.67;;
12623;SDS011;6377;42.836;23.998;2023-06-01T01:12:03;6.73;;;5.23;;
12623;SDS011;6377;42.836;23.998;2023-06-01T01:14:36;8.47;;;5.17;;
12623;SDS011;6377;42.836;23.998;2023-06-01T01:17:08;8.70;;;5.43;;
12623;SDS011;6377;42.836;23.998;2023-06-01T01:19:53;5.27;;;4.47;;
12623;SDS011;6377;42.836;23.998;2023-06-01T01:22:25;7.50;;;4.97;;
12623;SDS011;6377;42.836;23.998;2023-06-01T01:25:15;6.83;;;5.50;;
12623;SDS011;6377;42.836;23.998;2023-06-01T01:27:54;5.97;;;5.33;;
12623;SDS011;6377;42.836;23.998;2023-06-01T01:30:34;7.23;;;4.53;;
12623;SDS011;6377;42.836;23.998;2023-06-01T01:33:04;6.53;;;4.77;;
12623;SDS011;6377;42.836;23.998;2023-06-01T01:35:32;6.07;;;5.10;;
12623;SDS011;6377;42.836;23.998;2023-06-01T01:38:00;5.27;;;4.63;;
12623;SDS011;6377;42.836;23.998;2023-06-01T01:40:27;10.53;;;5.37;;
12623;SDS011;6377;42.836;23.998;2023-06-01T01:42:54;7.27;;;4.93;;
12623;SDS011;6377;42.836;23.998;2023-06-01T01:45:22;6.67;;;5.10;;
12623;SDS011;6377;42.836;23.998;2023-06-01T01:47:54;5.07;;;4.50;;
12623;SDS011;6377;42.836;23.998;2023-06-01T01:50:26;8.10;;;5.20;;
12623;SDS011;6377;42.836;23.998;2023-06-01T01:52:59;5.30;;;4.60;;
12623;SDS011;6377;42.836;23.998;2023-06-01T01:55:27;5.57;;;5.00;;
12623;SDS011;6377;42.836;23.998;2023-06-01T01:57:56;8.50;;;4.80;;
12623;SDS011;6377;42.836;23.998;2023-06-01T02:00:26;8.33;;;5.70;;
12623;SDS011;6377;42.836;23.998;2023-06-01T02:02:55;8.23;;;5.37;;
12623;SDS011;6377;42.836;23.998;2023-06-01T02:05:22;6.10;;;5.47;;
12623;SDS011;6377;42.836;23.998;2023-06-01T02:07:49;7.07;;;5.73;;
12623;SDS011;6377;42.836;23.998;2023-06-01T02:10:16;8.53;;;5.47;;
12623;SDS011;6377;42.836;23.998;2023-06-01T02:12:44;6.30;;;5.20;;
12623;SDS011;6377;42.836;23.998;2023-06-01T02:15:11;6.97;;;5.20;;
12623;SDS011;6377;42.836;23.998;2023-06-01T02:17:38;8.03;;;5.57;;
12623;SDS011;6377;42.836;23.998;2023-06-01T02:20:08;7.73;;;5.17;;
12623;SDS011;6377;42.836;23.998;2023-06-01T02:22:37;7.33;;;5.30;;
12623;SDS011;6377;42.836;23.998;2023-06-01T02:25:04;7.63;;;5.60;;
12623;SDS011;6377;42.836;23.998;2023-06-01T02:27:32;7.43;;;5.70;;
12623;SDS011;6377;42.836;23.998;2023-06-01T02:29:59;10.40;;;5.90;;
12623;SDS011;6377;42.836;23.998;2023-06-01T02:32:26;7.03;;;5.50;;
12623;SDS011;6377;42.836;23.998;2023-06-01T02:34:55;8.27;;;5.73;;
12623;SDS011;6377;42.836;23.998;2023-06-01T02:37:24;8.87;;;5.37;;
12623;SDS011;6377;42.836;23.998;2023-06-01T02:39:51;6.63;;;5.17;;
12623;SDS011;6377;42.836;23.998;2023-06-01T02:42:19;7.90;;;5.50;;
12623;SDS011;6377;42.836;23.998;2023-06-01T02:44:46;9.27;;;5.87;;
12623;SDS011;6377;42.836;23.998;2023-06-01T02:47:13;7.63;;;5.63;;
12623;SDS011;6377;42.836;23.998;2023-06-01T02:49:40;8.37;;;5.63;;
12623;SDS011;6377;42.836;23.998;2023-06-01T02:52:07;6.97;;;5.13;;
12623;SDS011;6377;42.836;23.998;2023-06-01T02:54:36;7.60;;;4.87;;
12623;SDS011;6377;42.836;23.998;2023-06-01T02:57:03;6.77;;;4.90;;
12623;SDS011;6377;42.836;23.998;2023-06-01T02:59:31;9.13;;;4.90;;
12623;SDS011;6377;42.836;23.998;2023-06-01T03:01:58;7.63;;;4.80;;
12623;SDS011;6377;42.836;23.998;2023-06-01T03:04:25;5.10;;;4.33;;
12623;SDS011;6377;42.836;23.998;2023-06-01T03:06:54;6.43;;;4.50;;
12623;SDS011;6377;42.836;23.998;2023-06-01T03:09:22;6.03;;;4.70;;
12623;SDS011;6377;42.836;23.998;2023-06-01T03:11:51;5.60;;;3.97;;
12623;SDS011;6377;42.836;23.998;2023-06-01T03:14:18;6.17;;;4.80;;
12623;SDS011;6377;42.836;23.998;2023-06-01T03:16:45;5.50;;;4.63;;
12623;SDS011;6377;42.836;23.998;2023-06-01T03:19:12;5.27;;;4.50;;
12623;SDS011;6377;42.836;23.998;2023-06-01T03:21:39;7.40;;;4.60;;
12623;SDS011;6377;42.836;23.998;2023-06-01T03:24:07;4.73;;;4.00;;
12623;SDS011;6377;42.836;23.998;2023-06-01T03:26:34;7.70;;;4.60;;
12623;SDS011;6377;42.836;23.998;2023-06-01T03:29:02;5.77;;;4.53;;
12623;SDS011;6377;42.836;23.998;2023-06-01T03:31:30;10.87;;;6.20;;
12623;SDS011;6377;42.836;23.998;2023-06-01T03:33:59;6.90;;;5.50;;
12623;SDS011;6377;42.836;23.998;2023-06-01T03:36:26;5.97;;;5.20;;
12623;SDS011;6377;42.836;23.998;2023-06-01T03:38:54;6.47;;;5.47;;
12623;SDS011;6377;42.836;23.998;2023-06-01T03:41:21;7.33;;;5.10;;
12623;SDS011;6377;42.836;23.998;2023-06-01T03:43:48;8.70;;;5.67;;
12623;SDS011;6377;42.836;23.998;2023-06-01T03:46:17;7.60;;;5.60;;
12623;SDS011;6377;42.836;23.998;2023-06-01T03:48:44;11.17;;;5.77;;
12623;SDS011;6377;42.836;23.998;2023-06-01T03:51:11;6.50;;;5.40;;
12623;SDS011;6377;42.836;23.998;2023-06-01T03:53:38;6.00;;;5.20;;
12623;SDS011;6377;42.836;23.998;2023-06-01T03:56:05;6.73;;;5.37;;
12623;SDS011;6377;42.836;23.998;2023-06-01T03:58:32;6.07;;;5.10;;
12623;SDS011;6377;42.836;23.998;2023-06-01T04:01:00;7.50;;;4.97;;
12623;SDS011;6377;42.836;23.998;2023-06-01T04:03:30;6.23;;;5.10;;
12623;SDS011;6377;42.836;23.998;2023-06-01T04:05:58;7.33;;;4.57;;
12623;SDS011;6377;42.836;23.998;2023-06-01T04:08:27;6.57;;;5.70;;
12623;SDS011;6377;42.836;23.998;2023-06-01T04:10:54;6.97;;;5.20;;
12623;SDS011;6377;42.836;23.998;2023-06-01T04:13:21;10.10;;;5.30;;
12623;SDS011;6377;42.836;23.998;2023-06-01T04:15:48;6.00;;;4.73;;
12623;SDS011;6377;42.836;23.998;2023-06-01T04:18:15;6.83;;;5.00;;
12623;SDS011;6377;42.836;23.998;2023-06-01T04:20:44;5.60;;;5.00;;
12623;SDS011;6377;42.836;23.998;2023-06-01T04:23:13;5.80;;;5.27;;
12623;SDS011;6377;42.836;23.998;2023-06-01T04:25:41;6.47;;;5.00;;
12623;SDS011;6377;42.836;23.998;2023-06-01T04:28:09;6.10;;;5.43;;
12623;SDS011;6377;42.836;23.998;2023-06-01T04:30:37;7.73;;;6.00;;
12623;SDS011;6377;42.836;23.998;2023-06-01T04:33:04;7.23;;;5.83;;
12623;SDS011;6377;42.836;23.998;2023-06-01T04:35:31;7.10;;;6.10;;
12623;SDS011;6377;42.836;23.998;2023-06-01T04:38:01;6.73;;;5.50;;
12623;SDS011;6377;42.836;23.998;2023-06-01T04:40:28;7.23;;;5.80;;
12623;SDS011;6377;42.836;23.998;2023-06-01T04:42:55;6.53;;;5.77;;
12623;SDS011;6377;42.836;23.998;2023-06-01T04:45:22;7.80;;;5.63;;
12623;SDS011;6377;42.836;23.998;2023-06-01T04:47:50;7.67;;;5.80;;
12623;SDS011;6377;42.836;23.998;2023-06-01T04:50:18;7.83;;;5.83;;
12623;SDS011;6377;42.836;23.998;2023-06-01T04:52:45;7.47;;;5.63;;
12623;SDS011;6377;42.836;23.998;2023-06-01T04:55:14;7.93;;;6.10;;
12623;SDS011;6377;42.836;23.998;2023-06-01T04:57:42;6.30;;;4.90;;
12623;SDS011;6377;42.836;23.998;2023-06-01T05:00:09;6.23;;;5.13;;
12623;SDS011;6377;42.836;23.998;2023-06-01T05:02:38;6.43;;;5.60;;
12623;SDS011;6377;42.836;23.998;2023-06-01T05:05:06;6.43;;;5.77;;
12623;SDS011;6377;42.836;23.998;2023-06-01T05:07:34;7.33;;;5.27;;
12623;SDS011;6377;42.836;23.998;2023-06-01T05:10:01;7.50;;;5.77;;
12623;SDS011;6377;42.836;23.998;2023-06-01T05:12:32;8.83;;;5.20;;
12623;SDS011;6377;42.836;23.998;2023-06-01T05:15:01;6.47;;;5.77;;
12623;SDS011;6377;42.836;23.998;2023-06-01T05:17:29;5.30;;;4.77;;
12623;SDS011;6377;42.836;23.998;2023-06-01T05:19:56;6.17;;;4.90;;
12623;SDS011;6377;42.836;23.998;2023-06-01T05:22:23;6.57;;;5.37;;
12623;SDS011;6377;42.836;23.998;2023-06-01T05:24:50;8.30;;;6.07;;
12623;SDS011;6377;42.836;23.998;2023-06-01T05:27:17;6.20;;;5.37;;
12623;SDS011;6377;42.836;23.998;2023-06-01T05:29:46;6.27;;;5.47;;
12623;SDS011;6377;42.836;23.998;2023-06-01T05:32:13;7.27;;;5.60;;
12623;SDS011;6377;42.836;23.998;2023-06-01T05:34:41;6.67;;;5.20;;
12623;SDS011;6377;42.836;23.998;2023-06-01T05:37:08;8.77;;;5.37;;
12623;SDS011;6377;42.836;23.998;2023-06-01T05:39:35;8.53;;;5.40;;
12623;SDS011;6377;42.836;23.998;2023-06-01T05:42:03;7.93;;;5.50;;
12623;SDS011;6377;42.836;23.998;2023-06-01T05:44:31;6.70;;;5.17;;
12623;SDS011;6377;42.836;23.998;2023-06-01T05:47:00;6.63;;;5.93;;
12623;SDS011;6377;42.836;23.998;2023-06-01T05:49:27;7.07;;;5.23;;
12623;SDS011;6377;42.836;23.998;2023-06-01T05:51:56;6.50;;;5.40;;
12623;SDS011;6377;42.836;23.998;2023-06-01T05:54:23;6.20;;;5.53;;
12623;SDS011;6377;42.836;23.998;2023-06-01T05:56:50;8.83;;;6.80;;
12623;SDS011;6377;42.836;23.998;2023-06-01T05:59:18;9.93;;;7.10;;
12623;SDS011;6377;42.836;23.998;2023-06-01T06:01:45;10.10;;;7.07;;
12623;SDS011;6377;42.836;23.998;2023-06-01T06:04:14;6.00;;;5.40;;
12623;SDS011;6377;42.836;23.998;2023-06-01T06:06:41;8.07;;;5.00;;
12623;SDS011;6377;42.836;23.998;2023-06-01T06:09:08;6.40;;;5.60;;
12623;SDS011;6377;42.836;23.998;2023-06-01T06:11:38;6.83;;;5.60;;
12623;SDS011;6377;42.836;23.998;2023-06-01T06:14:06;7.90;;;5.90;;
12623;SDS011;6377;42.836;23.998;2023-06-01T06:16:36;6.17;;;4.97;;
12623;SDS011;6377;42.836;23.998;2023-06-01T06:19:05;6.60;;;5.77;;
12623;SDS011;6377;42.836;23.998;2023-06-01T06:21:33;7.13;;;4.80;;
12623;SDS011;6377;42.836;23.998;2023-06-01T06:24:01;6.77;;;4.67;;
12623;SDS011;6377;42.836;23.998;2023-06-01T06:26:29;5.50;;;4.70;;
12623;SDS011;6377;42.836;23.998;2023-06-01T06:28:56;7.37;;;5.10;;
12623;SDS011;6377;42.836;23.998;2023-06-01T06:31:23;5.67;;;5.10;;
12623;SDS011;6377;42.836;23.998;2023-06-01T06:33:51;8.43;;;5.67;;
12623;SDS011;6377;42.836;23.998;2023-06-01T06:36:18;7.93;;;5.40;;
12623;SDS011;6377;42.836;23.998;2023-06-01T06:38:47;9.77;;;5.20;;
12623;SDS011;6377;42.836;23.998;2023-06-01T06:41:14;7.63;;;5.30;;
12623;SDS011;6377;42.836;23.998;2023-06-01T06:43:41;5.73;;;5.10;;
12623;SDS011;6377;42.836;23.998;2023-06-01T06:46:08;6.87;;;5.60;;
12623;SDS011;6377;42.836;23.998;2023-06-01T06:48:35;7.73;;;5.80;;
12623;SDS011;6377;42.836;23.998;2023-06-01T06:51:03;6.37;;;4.70;;
12623;SDS011;6377;42.836;23.998;2023-06-01T06:53:30;8.40;;;5.13;;
12623;SDS011;6377;42.836;23.998;2023-06-01T06:56:00;6.03;;;4.60;;
12623;SDS011;6377;42.836;23.998;2023-06-01T06:58:27;7.13;;;4.10;;
12623;SDS011;6377;42.836;23.998;2023-06-01T07:00:54;6.73;;;4.07;;
12623;SDS011;6377;42.836;23.998;2023-06-01T07:03:21;5.07;;;3.77;;
12623;SDS011;6377;42.836;23.998;2023-06-01T07:05:49;6.13;;;3.97;;
12623;SDS011;6377;42.836;23.998;2023-06-01T07:08:16;5.07;;;4.13;;
12623;SDS011;6377;42.836;23.998;2023-06-01T07:10:45;4.93;;;4.03;;
12623;SDS011;6377;42.836;23.998;2023-06-01T07:13:13;7.37;;;4.60;;
12623;SDS011;6377;42.836;23.998;2023-06-01T07:15:40;5.13;;;4.00;;
12623;SDS011;6377;42.836;23.998;2023-06-01T07:18:08;7.07;;;4.67;;
12623;SDS011;6377;42.836;23.998;2023-06-01T07:20:35;7.37;;;4.43;;
12623;SDS011;6377;42.836;23.998;2023-06-01T07:23:02;6.27;;;4.70;;
12623;SDS011;6377;42.836;23.998;2023-06-01T07:25:29;7.60;;;4.63;;
12623;SDS011;6377;42.836;23.998;2023-06-01T07:27:57;6.43;;;5.17;;
12623;SDS011;6377;42.836;23.998;2023-06-01T07:30:26;5.20;;;4.40;;
12623;SDS011;6377;42.836;23.998;2023-06-01T07:32:54;6.47;;;4.38;;
12623;SDS011;6377;42.836;23.998;2023-06-01T07:35:21;9.37;;;4.43;;
12623;SDS011;6377;42.836;23.998;2023-06-01T07:37:48;6.63;;;4.30;;
12623;SDS011;6377;42.836;23.998;2023-06-01T07:40:15;4.63;;;3.95;;
12623;SDS011;6377;42.836;23.998;2023-06-01T07:42:43;5.45;;;3.92;;
12623;SDS011;6377;42.836;23.998;2023-06-01T07:45:10;5.60;;;3.87;;
12623;SDS011;6377;42.836;23.998;2023-06-01T07:47:39;7.38;;;4.30;;
12623;SDS011;6377;42.836;23.998;2023-06-01T07:50:07;7.47;;;3.90;;
12623;SDS011;6377;42.836;23.998;2023-06-01T07:52:35;5.28;;;4.10;;
12623;SDS011;6377;42.836;23.998;2023-06-01T07:55:03;4.55;;;3.90;;
12623;SDS011;6377;42.836;23.998;2023-06-01T07:57:31;5.93;;;3.95;;
12623;SDS011;6377;42.836;23.998;2023-06-01T07:59:58;4.88;;;4.10;;
12623;SDS011;6377;42.836;23.998;2023-06-01T08:02:26;4.50;;;4.00;;
12623;SDS011;6377;42.836;23.998;2023-06-01T08:04:54;5.07;;;4.07;;
12623;SDS011;6377;42.836;23.998;2023-06-01T08:07:22;5.00;;;3.97;;
12623;SDS011;6377;42.836;23.998;2023-06-01T08:09:53;4.88;;;3.92;;
12623;SDS011;6377;42.836;23.998;2023-06-01T08:12:20;6.40;;;4.15;;
12623;SDS011;6377;42.836;23.998;2023-06-01T08:14:47;7.15;;;4.18;;
12623;SDS011;6377;42.836;23.998;2023-06-01T08:17:16;6.35;;;3.88;;
12623;SDS011;6377;42.836;23.998;2023-06-01T08:19:46;6.82;;;5.78;;
12623;SDS011;6377;42.836;23.998;2023-06-01T08:22:14;5.40;;;4.40;;
12623;SDS011;6377;42.836;23.998;2023-06-01T08:24:43;4.63;;;3.75;;
12623;SDS011;6377;42.836;23.998;2023-06-01T08:27:17;4.90;;;4.10;;
12623;SDS011;6377;42.836;23.998;2023-06-01T08:29:45;4.40;;;4.00;;
12623;SDS011;6377;42.836;23.998;2023-06-01T08:32:13;7.35;;;4.25;;
12623;SDS011;6377;42.836;23.998;2023-06-01T08:34:42;4.22;;;3.50;;
12623;SDS011;6377;42.836;23.998;2023-06-01T08:37:10;5.22;;;4.05;;
12623;SDS011;6377;42.836;23.998;2023-06-01T08:39:40;5.93;;;4.05;;
12623;SDS011;6377;42.836;23.998;2023-06-01T08:42:08;4.53;;;4.03;;
12623;SDS011;6377;42.836;23.998;2023-06-01T08:44:40;6.47;;;4.30;;
12623;SDS011;6377;42.836;23.998;2023-06-01T08:47:08;5.40;;;4.25;;
12623;SDS011;6377;42.836;23.998;2023-06-01T08:49:36;6.82;;;4.60;;
12623;SDS011;6377;42.836;23.998;2023-06-01T08:52:04;5.60;;;3.83;;
12623;SDS011;6377;42.836;23.998;2023-06-01T08:54:35;5.35;;;3.97;;
12623;SDS011;6377;42.836;23.998;2023-06-01T08:57:05;4.40;;;4.00;;
12623;SDS011;6377;42.836;23.998;2023-06-01T08:59:33;5.20;;;4.00;;
12623;SDS011;6377;42.836;23.998;2023-06-01T09:02:01;7.93;;;4.40;;
12623;SDS011;6377;42.836;23.998;2023-06-01T09:04:29;4.40;;;4.00;;
12623;SDS011;6377;42.836;23.998;2023-06-01T09:06:57;4.43;;;4.03;;
12623;SDS011;6377;42.836;23.998;2023-06-01T09:09:24;6.38;;;3.83;;
12623;SDS011;6377;42.836;23.998;2023-06-01T09:14:44;3.90;;;3.50;;
12623;SDS011;6377;42.836;23.998;2023-06-01T09:17:12;5.00;;;3.85;;
12623;SDS011;6377;42.836;23.998;2023-06-01T09:19:41;5.18;;;4.03;;
12623;SDS011;6377;42.836;23.998;2023-06-01T09:22:10;4.90;;;4.05;;
12623;SDS011;6377;42.836;23.998;2023-06-01T09:24:38;5.03;;;4.03;;
12623;SDS011;6377;42.836;23.998;2023-06-01T09:27:06;5.30;;;3.85;;
12623;SDS011;6377;42.836;23.998;2023-06-01T09:29:35;5.57;;;3.88;;
12623;SDS011;6377;42.836;23.998;2023-06-01T09:32:02;4.13;;;3.72;;
12623;SDS011;6377;42.836;23.998;2023-06-01T09:34:29;5.50;;;3.83;;
12623;SDS011;6377;42.836;23.998;2023-06-01T09:36:57;6.55;;;3.92;;
12623;SDS011;6377;42.836;23.998;2023-06-01T09:39:32;5.03;;;3.75;;
12623;SDS011;6377;42.836;23.998;2023-06-01T09:42:00;7.47;;;4.07;;
12623;SDS011;6377;42.836;23.998;2023-06-01T09:44:28;9.13;;;4.25;;
12623;SDS011;6377;42.836;23.998;2023-06-01T09:46:58;6.43;;;4.07;;
12623;SDS011;6377;42.836;23.998;2023-06-01T09:49:26;5.32;;;4.03;;
12623;SDS011;6377;42.836;23.998;2023-06-01T09:52:08;4.63;;;4.03;;
12623;SDS011;6377;42.836;23.998;2023-06-01T09:54:40;4.45;;;4.05;;
12623;SDS011;6377;42.836;23.998;2023-06-01T09:57:08;6.55;;;4.30;;
12623;SDS011;6377;42.836;23.998;2023-06-01T09:59:40;4.20;;;3.80;;
12623;SDS011;6377;42.836;23.998;2023-06-01T10:02:11;5.45;;;4.20;;
12623;SDS011;6377;42.836;23.998;2023-06-01T10:04:41;6.85;;;4.70;;
12623;SDS011;6377;42.836;23.998;2023-06-01T10:07:10;5.93;;;4.70;;
12623;SDS011;6377;42.836;23.998;2023-06-01T10:09:40;7.60;;;4.00;;
12623;SDS011;6377;42.836;23.998;2023-06-01T10:12:08;9.45;;;4.88;;
12623;SDS011;6377;42.836;23.998;2023-06-01T10:14:36;5.97;;;4.28;;
12623;SDS011;6377;42.836;23.998;2023-06-01T10:17:04;6.38;;;4.90;;
12623;SDS011;6377;42.836;23.998;2023-06-01T10:19:34;6.15;;;4.70;;
12623;SDS011;6377;42.836;23.998;2023-06-01T10:22:03;5.80;;;4.78;;
12623;SDS011;6377;42.836;23.998;2023-06-01T10:24:31;6.80;;;5.10;;
12623;SDS011;6377;42.836;23.998;2023-06-01T10:27:01;5.70;;;4.97;;
12623;SDS011;6377;42.836;23.998;2023-06-01T10:29:32;6.82;;;5.30;;
12623;SDS011;6377;42.836;23.998;2023-06-01T10:32:00;10.23;;;5.32;;
12623;SDS011;6377;42.836;23.998;2023-06-01T10:34:38;6.13;;;5.20;;
12623;SDS011;6377;42.836;23.998;2023-06-01T10:37:15;5.60;;;5.10;;
12623;SDS011;6377;42.836;23.998;2023-06-01T10:39:43;6.90;;;5.03;;
12623;SDS011;6377;42.836;23.998;2023-06-01T10:48:05;5.50;;;4.85;;
12623;SDS011;6377;42.836;23.998;2023-06-01T10:50:34;8.30;;;4.68;;
12623;SDS011;6377;42.836;23.998;2023-06-01T10:59:11;7.95;;;4.72;;
12623;SDS011;6377;42.836;23.998;2023-06-01T11:01:39;5.65;;;5.10;;
12623;SDS011;6377;42.836;23.998;2023-06-01T11:04:07;7.80;;;5.28;;
12623;SDS011;6377;42.836;23.998;2023-06-01T11:06:37;6.60;;;5.05;;
12623;SDS011;6377;42.836;23.998;2023-06-01T11:09:06;9.02;;;5.10;;
12623;SDS011;6377;42.836;23.998;2023-06-01T11:14:34;6.93;;;5.10;;
12623;SDS011;6377;42.836;23.998;2023-06-01T11:20:02;5.80;;;5.20;;
12623;SDS011;6377;42.836;23.998;2023-06-01T11:22:38;5.45;;;4.93;;
12623;SDS011;6377;42.836;23.998;2023-06-01T11:25:05;6.45;;;4.72;;
12623;SDS011;6377;42.836;23.998;2023-06-01T11:27:34;6.50;;;5.00;;
12623;SDS011;6377;42.836;23.998;2023-06-01T11:30:03;7.53;;;4.47;;
12623;SDS011;6377;42.836;23.998;2023-06-01T11:32:31;5.70;;;4.90;;
12623;SDS011;6377;42.836;23.998;2023-06-01T11:35:18;6.50;;;4.82;;
12623;SDS011;6377;42.836;23.998;2023-06-01T11:37:51;7.18;;;5.28;;
12623;SDS011;6377;42.836;23.998;2023-06-01T11:40:20;7.18;;;4.70;;
12623;SDS011;6377;42.836;23.998;2023-06-01T11:42:47;6.32;;;4.80;;
12623;SDS011;6377;42.836;23.998;2023-06-01T11:45:14;7.38;;;5.22;;
12623;SDS011;6377;42.836;23.998;2023-06-01T11:47:42;7.43;;;4.70;;
12623;SDS011;6377;42.836;23.998;2023-06-01T11:50:19;7.95;;;5.00;;
12623;SDS011;6377;42.836;23.998;2023-06-01T11:52:49;6.97;;;5.45;;
12623;SDS011;6377;42.836;23.998;2023-06-01T11:55:16;5.82;;;5.20;;
12623;SDS011;6377;42.836;23.998;2023-06-01T11:57:43;5.90;;;4.78;;
12623;SDS011;6377;42.836;23.998;2023-06-01T12:00:10;7.03;;;4.70;;
12623;SDS011;6377;42.836;23.998;2023-06-01T12:02:39;6.20;;;4.32;;
12623;SDS011;6377;42.836;23.998;2023-06-01T12:05:07;5.72;;;4.65;;
12623;SDS011;6377;42.836;23.998;2023-06-01T12:07:42;5.97;;;4.63;;
12623;SDS011;6377;42.836;23.998;2023-06-01T12:10:12;6.47;;;4.57;;
12623;SDS011;6377;42.836;23.998;2023-06-01T12:12:40;6.15;;;4.70;;
12623;SDS011;6377;42.836;23.998;2023-06-01T12:15:09;6.78;;;5.28;;
12623;SDS011;6377;42.836;23.998;2023-06-01T12:17:46;6.43;;;5.00;;
12623;SDS011;6377;42.836;23.998;2023-06-01T12:20:25;7.90;;;5.57;;
12623;SDS011;6377;42.836;23.998;2023-06-01T12:22:53;8.35;;;7.43;;
12623;SDS011;6377;42.836;23.998;2023-06-01T12:25:22;7.13;;;5.40;;
12623;SDS011;6377;42.836;23.998;2023-06-01T12:27:59;8.55;;;5.70;;
12623;SDS011;6377;42.836;23.998;2023-06-01T12:30:27;8.18;;;5.78;;
12623;SDS011;6377;42.836;23.998;2023-06-01T12:32:54;11.00;;;5.13;;
12623;SDS011;6377;42.836;23.998;2023-06-01T12:35:22;7.45;;;5.10;;
12623;SDS011;6377;42.836;23.998;2023-06-01T12:38:01;6.25;;;5.50;;
12623;SDS011;6377;42.836;23.998;2023-06-01T12:40:31;9.73;;;5.85;;
12623;SDS011;6377;42.836;23.998;2023-06-01T12:42:58;9.75;;;6.20;;
12623;SDS011;6377;42.836;23.998;2023-06-01T12:45:34;7.13;;;5.78;;
12623;SDS011;6377;42.836;23.998;2023-06-01T12:48:03;7.75;;;5.50;;
12623;SDS011;6377;42.836;23.998;2023-06-01T12:50:30;6.53;;;5.80;;
12623;SDS011;6377;42.836;23.998;2023-06-01T12:52:57;7.25;;;6.00;;
12623;SDS011;6377;42.836;23.998;2023-06-01T12:55:24;9.05;;;6.50;;
12623;SDS011;6377;42.836;23.998;2023-06-01T12:57:54;7.53;;;6.65;;
12623;SDS011;6377;42.836;23.998;2023-06-01T13:00:22;10.45;;;6.78;;
12623;SDS011;6377;42.836;23.998;2023-06-01T13:02:49;8.25;;;6.30;;
12623;SDS011;6377;42.836;23.998;2023-06-01T13:05:16;8.98;;;6.40;;
12623;SDS011;6377;42.836;23.998;2023-06-01T13:07:43;8.27;;;7.27;;
12623;SDS011;6377;42.836;23.998;2023-06-01T13:10:11;8.70;;;6.43;;
12623;SDS011;6377;42.836;23.998;2023-06-01T13:12:38;7.28;;;6.30;;
12623;SDS011;6377;42.836;23.998;2023-06-01T13:15:08;10.67;;;7.17;;
12623;SDS011;6377;42.836;23.998;2023-06-01T13:17:37;8.13;;;7.32;;
12623;SDS011;6377;42.836;23.998;2023-06-01T13:20:05;8.57;;;6.83;;
12623;SDS011;6377;42.836;23.998;2023-06-01T13:22:35;11.43;;;7.87;;
12623;SDS011;6377;42.836;23.998;2023-06-01T13:25:03;14.37;;;8.00;;
12623;SDS011;6377;42.836;23.998;2023-06-01T13:27:31;8.73;;;7.75;;
12623;SDS011;6377;42.836;23.998;2023-06-01T13:29:58;9.13;;;6.72;;
12623;SDS011;6377;42.836;23.998;2023-06-01T13:32:27;8.98;;;6.47;;
12623;SDS011;6377;42.836;23.998;2023-06-01T13:34:55;9.57;;;6.47;;
12623;SDS011;6377;42.836;23.998;2023-06-01T13:37:22;6.95;;;6.25;;
12623;SDS011;6377;42.836;23.998;2023-06-01T13:39:49;8.38;;;6.15;;
12623;SDS011;6377;42.836;23.998;2023-06-01T13:42:17;7.35;;;5.70;;
12623;SDS011;6377;42.836;23.998;2023-06-01T13:44:44;6.60;;;5.70;;
12623;SDS011;6377;42.836;23.998;2023-06-01T13:47:11;6.15;;;5.55;;
12623;SDS011;6377;42.836;23.998;2023-06-01T13:49:41;5.97;;;5.25;;
12623;SDS011;6377;42.836;23.998;2023-06-01T13:52:09;11.25;;;5.82;;
12623;SDS011;6377;42.836;23.998;2023-06-01T13:54:37;5.80;;;5.20;;
12623;SDS011;6377;42.836;23.998;2023-06-01T13:57:04;6.30;;;5.63;;
12623;SDS011;6377;42.836;23.998;2023-06-01T13:59:32;6.15;;;5.00;;
12623;SDS011;6377;42.836;23.998;2023-06-01T14:02:01;5.40;;;4.90;;
12623;SDS011;6377;42.836;23.998;2023-06-01T14:04:28;5.88;;;5.18;;
12623;SDS011;6377;42.836;23.998;2023-06-01T14:06:57;6.70;;;5.07;;
12623;SDS011;6377;42.836;23.998;2023-06-01T14:09:25;5.63;;;5.00;;
12623;SDS011;6377;42.836;23.998;2023-06-01T14:11:52;6.32;;;5.22;;
12623;SDS011;6377;42.836;23.998;2023-06-01T14:14:19;6.90;;;4.97;;
12623;SDS011;6377;42.836;23.998;2023-06-01T14:16:46;7.47;;;4.82;;
12623;SDS011;6377;42.836;23.998;2023-06-01T14:19:13;5.43;;;4.63;;
12623;SDS011;6377;42.836;23.998;2023-06-01T14:21:40;6.53;;;5.47;;
12623;SDS011;6377;42.836;23.998;2023-06-01T14:24:09;8.38;;;6.15;;
12623;SDS011;6377;42.836;23.998;2023-06-01T14:26:36;6.72;;;5.60;;
12623;SDS011;6377;42.836;23.998;2023-06-01T14:29:03;8.05;;;5.55;;
12623;SDS011;6377;42.836;23.998;2023-06-01T14:31:30;5.50;;;4.93;;
12623;SDS011;6377;42.836;23.998;2023-06-01T14:33:57;5.35;;;4.85;;
12623;SDS011;6377;42.836;23.998;2023-06-01T14:36:24;6.18;;;5.40;;
12623;SDS011;6377;42.836;23.998;2023-06-01T14:38:52;6.07;;;5.47;;
12623;SDS011;6377;42.836;23.998;2023-06-01T14:41:21;7.10;;;5.53;;
12623;SDS011;6377;42.836;23.998;2023-06-01T14:43:48;7.68;;;5.38;;
12623;SDS011;6377;42.836;23.998;2023-06-01T14:46:15;9.43;;;8.57;;
12623;SDS011;6377;42.836;23.998;2023-06-01T14:48:42;8.15;;;5.78;;
12623;SDS011;6377;42.836;23.998;2023-06-01T14:51:09;14.25;;;10.48;;
12623;SDS011;6377;42.836;23.998;2023-06-01T14:53:36;6.80;;;5.88;;
12623;SDS011;6377;42.836;23.998;2023-06-01T14:56:04;8.38;;;6.00;;
12623;SDS011;6377;42.836;23.998;2023-06-01T14:58:33;7.40;;;5.72;;
12623;SDS011;6377;42.836;23.998;2023-06-01T15:01:00;7.90;;;6.07;;
12623;SDS011;6377;42.836;23.998;2023-06-01T15:03:28;6.60;;;5.88;;
12623;SDS011;6377;42.836;23.998;2023-06-01T15:05:55;7.45;;;5.75;;
12623;SDS011;6377;42.836;23.998;2023-06-01T15:08:22;6.45;;;5.32;;
12623;SDS011;6377;42.836;23.998;2023-06-01T15:10:51;8.13;;;5.50;;
12623;SDS011;6377;42.836;23.998;2023-06-01T15:13:19;5.65;;;4.88;;
12623;SDS011;6377;42.836;23.998;2023-06-01T15:15:47;6.45;;;5.03;;